createdAt,value
2023-02-19T00:00:10.890Z,101613.31
2023-02-19T00:10:12.165Z,101609.94
2023-02-19T00:20:13.441Z,101609.09
2023-02-19T00:30:14.666Z,101610.75
2023-02-19T00:40:15.943Z,101614.28
2023-02-19T00:50:17.178Z,101603.91
2023-02-19T01:00:18.527Z,101622.84
2023-02-19T01:10:19.804Z,101622.84
2023-02-19T01:20:21.092Z,101641.31
2023-02-19T01:30:22.387Z,101649.09
2023-02-19T01:40:23.675Z,101647.41
2023-02-19T01:50:24.902Z,101662.16
2023-02-19T02:00:26.228Z,101654.38
2023-02-19T02:10:27.561Z,101642.22
2023-02-19T02:20:28.882Z,101653.59
2023-02-19T02:30:30.267Z,101651.09
2023-02-19T02:40:31.575Z,101647.59
2023-02-19T02:50:32.840Z,101666.72
2023-02-19T03:00:34.095Z,101671.13
2023-02-19T03:10:35.366Z,101683.22
2023-02-19T03:20:36.610Z,101683.31
2023-02-19T03:30:37.917Z,101685.97
2023-02-19T03:40:39.295Z,101688.66
2023-02-19T03:50:40.592Z,101699.13
2023-02-19T04:00:41.836Z,101717.38
2023-02-19T04:10:43.089Z,101739.22
2023-02-19T04:20:44.350Z,101738.28
2023-02-19T04:30:45.611Z,101747.97
2023-02-19T04:40:46.836Z,101768.88
2023-02-19T04:50:48.090Z,101783.56
2023-02-19T05:00:49.340Z,101799.91
2023-02-19T05:10:50.598Z,101808.69
2023-02-19T05:20:51.874Z,101835.53
2023-02-19T05:30:53.147Z,101834.59
2023-02-19T05:40:54.434Z,101853.03
2023-02-19T05:50:55.661Z,101850.28
2023-02-19T06:00:56.967Z,101849.97
2023-02-19T06:10:58.232Z,101851.59
2023-02-19T06:20:59.557Z,101851.53
2023-02-19T06:41:29.572Z,101899.38
2023-02-19T06:51:30.860Z,101901.88
2023-02-19T07:01:32.105Z,101914.06
2023-02-19T07:11:33.333Z,101916.66
2023-02-19T07:21:34.622Z,101936.56
2023-02-19T07:31:36.216Z,101968.16
2023-02-19T07:41:37.564Z,101973.19
2023-02-19T07:51:38.871Z,102003.84
2023-02-19T08:01:40.404Z,102031.59
2023-02-19T08:11:41.666Z,102035.22
2023-02-19T08:21:43.066Z,102040.41
2023-02-19T08:31:44.656Z,102056.91
2023-02-19T08:41:46.096Z,102060.50
2023-02-19T08:51:47.683Z,102064.81
2023-02-19T09:01:49.057Z,102082.19
2023-02-19T09:11:50.451Z,102106.63
2023-02-19T09:21:51.998Z,102091.72
2023-02-19T09:31:53.416Z,102092.63
2023-02-19T09:41:54.936Z,102117.09
2023-02-19T09:51:56.458Z,102118.72
2023-02-19T10:01:58.015Z,102157.91
2023-02-19T10:11:59.261Z,102179.81
2023-02-19T10:22:00.642Z,102188.50
2023-02-19T10:32:02.217Z,102191.19
2023-02-19T10:42:03.602Z,102231.41
2023-02-19T10:52:04.971Z,102233.19
2023-02-19T11:02:06.465Z,102237.47
2023-02-19T11:12:09.218Z,102238.28
2023-02-19T11:22:22.707Z,102239.19
2023-02-19T11:32:31.986Z,102219.84
2023-02-19T11:42:43.132Z,102232.00
2023-02-19T11:52:45.478Z,102232.00
2023-02-19T12:13:15.936Z,102217.06
2023-02-19T12:23:17.251Z,102209.28
2023-02-19T12:33:26.101Z,102224.09
2023-02-19T12:43:29.201Z,102227.59
2023-02-19T12:53:42.096Z,102232.81
2023-02-19T13:03:47.378Z,102234.63
2023-02-19T13:13:52.041Z,102259.00
2023-02-19T13:24:01.353Z,102267.81
2023-02-19T13:34:12.081Z,102274.81
2023-02-19T13:44:14.510Z,102291.44
2023-02-19T13:54:23.211Z,102314.22
2023-02-19T14:04:34.155Z,102323.91
2023-02-19T14:14:42.701Z,102326.63
2023-02-19T14:24:54.464Z,102341.47
2023-02-19T14:34:59.781Z,102340.69
2023-02-19T14:45:07.247Z,102327.59
2023-02-19T14:55:13.391Z,102329.38
2023-02-19T15:15:43.576Z,102300.59
2023-02-19T15:25:44.855Z,102290.25
2023-02-19T15:35:52.953Z,102301.47
2023-02-19T15:45:55.001Z,102324.28
2023-02-19T16:06:25.343Z,102363.59
2023-02-19T16:16:26.800Z,102361.88
2023-02-19T16:26:28.406Z,102374.16
2023-02-19T16:36:29.636Z,102406.16
2023-02-19T16:46:30.865Z,102427.09
2023-02-19T16:56:32.222Z,102431.44
2023-02-19T17:06:35.074Z,102421.00
2023-02-19T17:16:36.474Z,102433.25
2023-02-19T17:26:37.739Z,102437.56
2023-02-19T17:36:39.026Z,102440.25
2023-02-19T17:46:40.299Z,102435.00
2023-02-19T17:56:41.697Z,102452.50
2023-02-19T18:06:43.270Z,102460.31
2023-02-19T18:16:44.597Z,102470.78
2023-02-19T18:26:46.167Z,102487.31
2023-02-19T18:36:47.428Z,102477.75
2023-02-19T18:46:48.790Z,102485.59
2023-02-19T18:56:50.041Z,102472.53
2023-02-19T19:06:51.320Z,102480.38
2023-02-19T19:16:52.994Z,102478.72
2023-02-19T19:26:54.483Z,102485.72
2023-02-19T19:36:56.321Z,102477.00
2023-02-19T19:46:57.887Z,102480.47
2023-02-19T19:56:59.130Z,102495.25
2023-02-19T20:07:00.379Z,102490.94
2023-02-19T20:17:01.634Z,102492.69
2023-02-19T20:37:28.344Z,102499.69
2023-02-19T20:47:29.793Z,102498.84
2023-02-19T20:57:31.347Z,102486.59
2023-02-19T21:07:32.612Z,102473.56
2023-02-19T21:17:33.900Z,102476.16
2023-02-19T21:27:35.165Z,102488.41
2023-02-19T21:37:36.786Z,102478.78
2023-02-19T21:47:38.168Z,102438.69
2023-02-19T21:57:39.445Z,102425.59
2023-02-19T22:07:40.824Z,102451.75
2023-02-19T22:17:42.060Z,102474.47
2023-02-19T22:27:43.319Z,102459.66
2023-02-19T22:37:44.698Z,102465.75
2023-02-19T22:47:45.972Z,102448.31
2023-02-19T22:57:47.384Z,102446.56
2023-02-19T23:07:48.884Z,102431.84
2023-02-19T23:17:50.164Z,102439.59
2023-02-19T23:27:51.418Z,102417.81
2023-02-19T23:37:52.674Z,102405.56
2023-02-19T23:47:53.932Z,102381.25
2023-02-19T23:57:55.169Z,102385.53
